Time;durP1;ratioP1;P1;durP2;ratioP2;P2;SDS_P1;SDS_P2;PMS_P1;PMS_P2;Temp;Humidity;BMP_temperature;BMP_pressure;BME280_temperature;BME280_humidity;BME280_pressure;Samples;Min_cycle;Max_cycle;Signal;HPM_P1;HPM_P2
2022/03/30 00:00:19;;;;;;;14.80;7.13;;;;;;;;;;5013509;28;20436;-66
2022/03/30 00:02:46;;;;;;;15.45;7.28;;;15.40;81.10;;;;;;5014176;28;20060;-66
2022/03/30 00:05:11;;;;;;;15.43;7.95;;;15.40;81.30;;;;;;5014036;28;20057;-66
2022/03/30 00:07:37;;;;;;;20.17;7.80;;;15.50;81.10;;;;;;5014482;28;20050;-66
2022/03/30 00:10:04;;;;;;;17.08;7.72;;;15.50;80.00;;;;;;5013685;28;20070;-66
2022/03/30 00:12:30;;;;;;;14.23;7.20;;;15.40;81.00;;;;;;5011601;28;20408;-66
2022/03/30 00:14:56;;;;;;;14.02;7.10;;;15.50;81.10;;;;;;5013771;28;20041;-65
2022/03/30 00:17:21;;;;;;;12.02;6.97;;;15.30;81.30;;;;;;5013927;28;20042;-65
2022/03/30 00:19:47;;;;;;;14.25;7.90;;;15.50;79.90;;;;;;5014212;28;20049;-64
2022/03/30 00:22:13;;;;;;;12.70;7.70;;;15.40;81.00;;;;;;5010719;28;20401;-64
2022/03/30 00:24:39;;;;;;;14.98;7.60;;;15.50;81.10;;;;;;5006550;28;20057;-64
2022/03/30 00:27:06;;;;;;;17.95;7.78;;;15.50;81.20;;;;;;4995681;28;20038;-64
2022/03/30 00:29:32;;;;;;;15.75;8.02;;;15.50;81.10;;;;;;5011177;28;20077;-65
2022/03/30 00:31:59;;;;;;;14.27;7.20;;;;;;;;;;5011681;28;20061;-63
2022/03/30 00:34:24;;;;;;;16.60;6.95;;;15.40;81.00;;;;;;5010052;28;20092;-64
2022/03/30 00:36:50;;;;;;;15.43;7.45;;;15.40;78.40;;;;;;5009022;28;20042;-65
2022/03/30 00:39:19;;;;;;;13.57;7.63;;;15.40;81.00;;;;;;5011909;28;20124;-66
2022/03/30 00:41:45;;;;;;;14.05;7.03;;;;;;;;;;5011049;28;20041;-66
2022/03/30 00:44:12;;;;;;;16.42;7.28;;;15.60;81.10;;;;;;5011892;28;20052;-66
2022/03/30 00:46:38;;;;;;;12.63;7.03;;;15.70;81.10;;;;;;5009693;28;20042;-66
2022/03/30 00:49:05;;;;;;;17.95;7.25;;;;;;;;;;5011142;28;20485;-66
2022/03/30 00:51:34;;;;;;;13.07;6.85;;;15.60;81.00;;;;;;5010859;28;20500;-66
2022/03/30 00:54:00;;;;;;;14.60;7.57;;;15.10;78.20;;;;;;5012022;28;20096;-66
2022/03/30 00:56:27;;;;;;;14.32;7.40;;;15.40;81.00;;;;;;5002351;28;20038;-66
2022/03/30 00:58:53;;;;;;;13.32;7.18;;;15.50;81.00;;;;;;5008016;28;20057;-66
2022/03/30 01:01:20;;;;;;;13.90;7.28;;;;;;;;;;4995261;28;20050;-66
2022/03/30 01:03:46;;;;;;;12.70;7.68;;;15.30;80.80;;;;;;5005447;28;20545;-66
2022/03/30 01:06:12;;;;;;;13.63;7.05;;;15.40;78.30;;;;;;5004662;28;20049;-66
2022/03/30 01:08:38;;;;;;;12.60;6.78;;;15.60;81.10;;;;;;5012503;28;20373;-66
2022/03/30 01:11:03;;;;;;;13.70;7.03;;;15.10;80.80;;;;;;5013366;28;20049;-66
2022/03/30 01:13:29;;;;;;;12.45;7.10;;;15.50;81.00;;;;;;5010848;28;20492;-67
2022/03/30 01:15:55;;;;;;;13.77;7.55;;;15.40;81.00;;;;;;5012387;28;20125;-66
2022/03/30 01:18:21;;;;;;;14.38;7.32;;;15.70;81.20;;;;;;4995910;28;20124;-65
2022/03/30 01:20:50;;;;;;;11.57;6.80;;;15.40;81.00;;;;;;5016524;28;20495;-66
2022/03/30 01:23:17;;;;;;;15.20;6.95;;;15.70;81.20;;;;;;5015638;28;20615;-60
2022/03/30 01:25:42;;;;;;;15.35;7.50;;;15.50;81.20;;;;;;5013712;28;20092;-61
2022/03/30 01:28:08;;;;;;;13.27;7.55;;;15.60;81.10;;;;;;5010612;28;20043;-61
2022/03/30 01:33:18;;;;;;;15.30;7.28;;;;;;;;;;5005687;28;20054;-61
2022/03/30 01:35:44;;;;;;;12.60;7.47;;;15.20;81.20;;;;;;5009111;28;20046;-66
2022/03/30 01:38:10;;;;;;;13.13;7.40;;;15.60;81.20;;;;;;5002987;28;20450;-66
2022/03/30 01:40:37;;;;;;;13.63;7.43;;;15.50;81.20;;;;;;5003556;28;20119;-66
2022/03/30 01:43:02;;;;;;;14.60;8.25;;;15.30;80.90;;;;;;4999594;28;20518;-61
2022/03/30 01:45:28;;;;;;;13.38;7.20;;;15.40;81.00;;;;;;5001355;28;20133;-61
2022/03/30 01:47:58;;;;;;;14.52;7.40;;;15.50;78.50;;;;;;5001009;28;20085;-61
2022/03/30 01:50:25;;;;;;;15.60;6.97;;;;;;;;;;5011807;28;20045;-66
2022/03/30 01:52:51;;;;;;;15.13;7.97;;;;;;;;;;5014727;28;20045;-66
2022/03/30 01:55:17;;;;;;;13.80;7.97;;;15.50;77.50;;;;;;5014617;28;20056;-66
2022/03/30 01:57:43;;;;;;;13.00;7.35;;;;;;;;;;4994372;28;20445;-66
2022/03/30 02:00:10;;;;;;;17.88;7.40;;;15.50;81.20;;;;;;5002505;28;20046;-66
2022/03/30 02:02:37;;;;;;;15.07;7.13;;;15.50;77.10;;;;;;5014805;28;20046;-66
2022/03/30 02:05:04;;;;;;;12.75;7.28;;;15.40;81.20;;;;;;5016270;28;20052;-60
2022/03/30 02:07:30;;;;;;;14.88;7.60;;;15.30;81.00;;;;;;5012366;28;20121;-61
2022/03/30 02:09:56;;;;;;;15.13;7.45;;;;;;;;;;4997446;28;20133;-61
2022/03/30 02:12:22;;;;;;;17.50;7.72;;;15.60;81.10;;;;;;5008092;28;20050;-60
2022/03/30 02:14:51;;;;;;;15.77;8.35;;;;;;;;;;4996186;28;20046;-61
2022/03/30 02:17:18;;;;;;;13.60;7.78;;;15.40;81.40;;;;;;5000895;28;20448;-66
2022/03/30 02:19:45;;;;;;;16.70;7.22;;;;;;;;;;5010485;28;20064;-66
2022/03/30 02:22:10;;;;;;;15.55;7.40;;;15.60;81.40;;;;;;5013927;28;20088;-66
2022/03/30 02:24:37;;;;;;;12.68;7.03;;;15.50;81.30;;;;;;4996357;28;20080;-66
2022/03/30 02:27:03;;;;;;;15.43;7.40;;;15.60;81.40;;;;;;4996334;28;20038;-66
2022/03/30 02:29:28;;;;;;;15.50;7.63;;;15.60;81.40;;;;;;4996226;28;20042;-66
2022/03/30 02:31:55;;;;;;;16.60;7.65;;;15.70;81.40;;;;;;5003521;28;20524;-66
2022/03/30 02:34:22;;;;;;;13.50;7.28;;;15.20;81.30;;;;;;5014254;28;20053;-66
2022/03/30 02:36:48;;;;;;;13.75;7.75;;;15.70;81.60;;;;;;4996113;28;20046;-66
2022/03/30 02:39:15;;;;;;;14.00;7.35;;;15.50;81.50;;;;;;4996086;28;20057;-66
2022/03/30 02:41:41;;;;;;;13.15;7.30;;;15.40;81.40;;;;;;4996811;28;20050;-66
2022/03/30 02:44:08;;;;;;;12.93;7.18;;;15.50;81.50;;;;;;5015167;28;20401;-66
2022/03/30 02:46:34;;;;;;;13.90;7.32;;;15.60;81.70;;;;;;5014658;28;20408;-66
2022/03/30 02:49:00;;;;;;;14.43;7.75;;;15.80;79.20;;;;;;5013828;28;20050;-66
2022/03/30 02:51:27;;;;;;;14.35;7.85;;;15.50;81.60;;;;;;5014977;28;20038;-66
2022/03/30 02:53:54;;;;;;;20.77;8.90;;;15.60;79.00;;;;;;5014323;28;20042;-60
2022/03/30 02:56:19;;;;;;;12.98;7.20;;;15.50;81.70;;;;;;5014978;28;20052;-61
2022/03/30 02:58:46;;;;;;;11.63;7.40;;;;;;;;;;5004737;28;20058;-66
2022/03/30 03:01:12;;;;;;;15.60;8.15;;;;;;;;;;4995901;28;20057;-66
2022/03/30 03:03:37;;;;;;;14.10;7.50;;;15.60;81.80;;;;;;4989745;28;20105;-66
2022/03/30 03:06:03;;;;;;;13.93;7.50;;;15.50;81.80;;;;;;5010388;28;20069;-66
2022/03/30 03:08:29;;;;;;;15.13;7.28;;;15.60;81.80;;;;;;4999207;28;20046;-66
2022/03/30 03:10:56;;;;;;;15.35;7.43;;;15.20;81.60;;;;;;5010575;28;20057;-66
2022/03/30 03:13:22;;;;;;;16.05;6.57;;;;;;;;;;5013218;28;20050;-66
2022/03/30 03:15:48;;;;;;;14.70;7.20;;;;;;;;;;4996642;28;20100;-66
2022/03/30 03:18:14;;;;;;;17.15;7.53;;;15.40;79.30;;;;;;5013520;28;20101;-66
2022/03/30 03:20:44;;;;;;;14.07;6.93;;;15.50;82.00;;;;;;5003749;28;20101;-66
2022/03/30 03:23:10;;;;;;;15.40;7.78;;;15.10;81.70;;;;;;5011419;28;20046;-66
2022/03/30 03:25:37;;;;;;;12.00;6.28;;;15.60;82.30;;;;;;4989101;28;20401;-67
2022/03/30 03:28:03;;;;;;;15.07;6.18;;;15.20;81.90;;;;;;5012243;28;20042;-66
2022/03/30 03:30:29;;;;;;;13.73;6.18;;;15.20;81.80;;;;;;5014035;28;20095;-66
2022/03/30 03:32:56;;;;;;;13.77;5.97;;;15.50;82.20;;;;;;5011585;28;20505;-66
2022/03/30 03:35:22;;;;;;;10.18;5.60;;;15.10;80.80;;;;;;5012304;28;20054;-61
2022/03/30 03:37:47;;;;;;;13.05;5.85;;;15.20;82.10;;;;;;5010681;28;20399;-61
2022/03/30 03:40:13;;;;;;;13.77;5.75;;;15.00;82.20;;;;;;5013933;28;20033;-60
2022/03/30 03:42:39;;;;;;;10.10;5.95;;;15.40;82.60;;;;;;5012393;28;20049;-60
2022/03/30 03:45:05;;;;;;;11.27;5.40;;;15.30;82.50;;;;;;4993120;28;20369;-60
2022/03/30 03:47:31;;;;;;;11.57;5.57;;;15.10;82.60;;;;;;5010491;28;20046;-66
2022/03/30 03:49:57;;;;;;;9.98;5.00;;;14.80;82.40;;;;;;5006443;28;20476;-66
2022/03/30 03:52:23;;;;;;;10.88;5.07;;;;;;;;;;5012079;28;20056;-66
2022/03/30 03:54:49;;;;;;;10.35;4.70;;;15.50;83.40;;;;;;5012447;28;20057;-66
2022/03/30 03:57:15;;;;;;;12.02;4.60;;;15.30;82.90;;;;;;4994551;28;20104;-61
2022/03/30 03:59:40;;;;;;;9.23;3.97;;;14.90;82.70;;;;;;5012387;28;20385;-61
2022/03/30 04:02:07;;;;;;;8.35;3.95;;;15.10;83.00;;;;;;5012758;28;20076;-65
2022/03/30 04:04:33;;;;;;;8.85;3.97;;;15.10;83.00;;;;;;5008751;28;20050;-65
2022/03/30 04:06:59;;;;;;;8.85;4.13;;;15.10;83.60;;;;;;5001246;28;20044;-66
2022/03/30 04:09:25;;;;;;;8.50;3.80;;;14.90;82.90;;;;;;5011990;28;20404;-66
2022/03/30 04:11:52;;;;;;;9.98;3.70;;;15.00;83.10;;;;;;5011875;28;20081;-66
2022/03/30 04:14:19;;;;;;;10.48;3.70;;;15.00;83.60;;;;;;5012235;28;20060;-66
2022/03/30 04:16:45;;;;;;;9.10;3.42;;;14.90;83.10;;;;;;5010470;28;20139;-66
2022/03/30 04:19:11;;;;;;;7.95;3.50;;;14.90;84.10;;;;;;5004820;28;20053;-66
2022/03/30 04:21:37;;;;;;;5.78;2.80;;;15.00;83.10;;;;;;4983622;28;20047;-65
2022/03/30 04:24:03;;;;;;;6.80;3.00;;;14.90;83.20;;;;;;4987328;28;20061;-65
2022/03/30 04:26:29;;;;;;;5.65;2.80;;;15.10;83.40;;;;;;4994223;28;20039;-66
2022/03/30 04:28:55;;;;;;;6.95;2.60;;;14.90;83.20;;;;;;4981860;28;20053;-66
2022/03/30 04:31:21;;;;;;;5.72;2.22;;;15.00;83.20;;;;;;4974765;28;20047;-66
2022/03/30 04:33:46;;;;;;;7.25;2.50;;;14.90;83.20;;;;;;4974665;28;20116;-66
2022/03/30 04:36:12;;;;;;;5.97;2.45;;;15.00;83.40;;;;;;4993780;28;20485;-66
2022/03/30 04:38:38;;;;;;;5.90;2.40;;;15.00;83.60;;;;;;4993321;28;20147;-66
2022/03/30 04:41:04;;;;;;;4.68;2.00;;;15.10;83.50;;;;;;4976480;28;20066;-66
2022/03/30 04:43:30;;;;;;;5.82;2.10;;;14.80;83.30;;;;;;4993210;28;20058;-65
2022/03/30 04:45:55;;;;;;;5.03;2.10;;;14.70;83.40;;;;;;4992915;28;20043;-66
2022/03/30 04:48:22;;;;;;;5.22;2.10;;;14.90;83.40;;;;;;4974667;28;20053;-66
2022/03/30 04:50:49;;;;;;;5.13;1.80;;;14.80;81.10;;;;;;4994015;28;20408;-66
2022/03/30 04:53:14;;;;;;;3.67;1.70;;;14.70;83.30;;;;;;4991227;28;20137;-66
2022/03/30 04:55:40;;;;;;;4.38;1.90;;;15.10;84.00;;;;;;4981096;28;20500;-66
2022/03/30 04:58:06;;;;;;;4.32;1.83;;;14.70;84.30;;;;;;4994019;28;21088;-66
2022/03/30 05:00:32;;;;;;;3.22;1.48;;;14.90;83.50;;;;;;4995844;28;20504;-67
2022/03/30 05:02:57;;;;;;;3.85;1.38;;;14.80;81.10;;;;;;4983533;28;20058;-66
2022/03/30 05:05:23;;;;;;;3.42;1.30;;;14.80;83.50;;;;;;4991764;28;20404;-66
2022/03/30 05:07:49;;;;;;;3.90;1.67;;;;;;;;;;4987506;28;20059;-65
2022/03/30 05:10:15;;;;;;;4.28;1.67;;;14.90;83.60;;;;;;4986334;28;20043;-66
2022/03/30 05:12:41;;;;;;;3.30;1.52;;;14.80;83.50;;;;;;4988513;28;20046;-66
2022/03/30 05:15:09;;;;;;;3.80;1.40;;;15.10;83.60;;;;;;4995004;28;20129;-66
2022/03/30 05:17:36;;;;;;;3.35;1.30;;;14.90;83.60;;;;;;4992516;28;20042;-66
2022/03/30 05:20:02;;;;;;;3.20;1.23;;;14.80;82.60;;;;;;4991554;28;20512;-66
2022/03/30 05:22:28;;;;;;;2.35;1.10;;;14.80;83.60;;;;;;5006425;28;20140;-65
2022/03/30 05:24:54;;;;;;;1.55;0.73;;;14.90;83.50;;;;;;4997469;28;20050;-65
2022/03/30 05:27:20;;;;;;;2.58;1.40;;;;;;;;;;5026039;28;20466;-65
2022/03/30 05:29:47;;;;;;;2.05;0.95;;;14.80;83.60;;;;;;5012694;28;20050;-66
2022/03/30 05:32:13;;;;;;;2.15;1.02;;;14.60;83.40;;;;;;5014711;28;20072;-66
2022/03/30 05:34:38;;;;;;;2.03;0.90;;;14.80;83.50;;;;;;5015150;28;20448;-66
2022/03/30 05:37:04;;;;;;;1.50;0.75;;;15.10;83.70;;;;;;5015196;28;20077;-66
2022/03/30 05:39:31;;;;;;;1.67;1.00;;;14.70;83.40;;;;;;5014336;28;20058;-66
2022/03/30 05:41:57;;;;;;;2.63;1.02;;;14.70;83.50;;;;;;5015012;28;20065;-66
2022/03/30 05:44:22;;;;;;;1.48;0.80;;;14.90;83.70;;;;;;5015029;28;20046;-65
2022/03/30 05:46:48;;;;;;;1.63;0.88;;;15.10;83.60;;;;;;5014990;28;20041;-65
2022/03/30 05:49:14;;;;;;;2.75;0.93;;;14.70;83.40;;;;;;5014470;28;20048;-66
2022/03/30 05:51:40;;;;;;;2.35;0.90;;;14.80;83.60;;;;;;5014741;28;20076;-65
2022/03/30 05:54:05;;;;;;;2.80;0.75;;;14.90;83.50;;;;;;5012265;28;20503;-65
2022/03/30 05:59:16;;;;;;;2.42;0.80;;;14.90;83.50;;;;;;5016031;28;20515;-65
2022/03/30 06:01:42;;;;;;;2.55;0.90;;;14.90;83.50;;;;;;5013684;28;20046;-66
2022/03/30 06:04:07;;;;;;;1.50;0.65;;;14.90;80.90;;;;;;5016098;28;20038;-66
2022/03/30 06:06:34;;;;;;;3.85;0.80;;;15.00;83.30;;;;;;5014561;28;20056;-65
2022/03/30 06:09:04;;;;;;;4.15;0.90;;;15.00;83.50;;;;;;5009335;28;20053;-65
2022/03/30 06:11:29;;;;;;;2.72;0.85;;;14.70;83.10;;;;;;5008662;28;20057;-65
2022/03/30 06:13:58;;;;;;;1.33;0.73;;;15.10;83.40;;;;;;5014877;28;20050;-65
2022/03/30 06:16:24;;;;;;;2.13;0.77;;;15.00;83.30;;;;;;5014479;28;20053;-61
2022/03/30 06:18:50;;;;;;;3.75;1.10;;;15.10;83.30;;;;;;5034234;28;20046;-64
2022/03/30 06:21:16;;;;;;;3.50;1.08;;;14.90;83.20;;;;;;5032888;28;20081;-61
2022/03/30 06:23:43;;;;;;;2.00;0.90;;;;;;;;;;5014353;28;20518;-66
2022/03/30 06:26:08;;;;;;;1.67;0.77;;;15.10;83.30;;;;;;5015860;28;20048;-66
2022/03/30 06:28:34;;;;;;;1.55;0.70;;;15.20;82.30;;;;;;5013509;28;20079;-66
2022/03/30 06:31:00;;;;;;;3.80;1.33;;;14.90;83.00;;;;;;5015831;28;20101;-66
2022/03/30 06:33:26;;;;;;;2.15;0.85;;;15.10;83.10;;;;;;5017744;28;20076;-65
2022/03/30 06:35:52;;;;;;;1.65;0.90;;;15.00;83.00;;;;;;5021513;28;20081;-66
2022/03/30 06:38:19;;;;;;;2.97;0.90;;;15.10;83.00;;;;;;5029743;28;20053;-65
2022/03/30 06:40:47;;;;;;;2.28;0.90;;;15.10;80.40;;;;;;5015388;28;20120;-66
2022/03/30 06:43:14;;;;;;;2.58;0.70;;;15.40;83.10;;;;;;5014801;28;20053;-66
2022/03/30 06:45:39;;;;;;;2.85;0.88;;;15.20;82.90;;;;;;4998083;28;20049;-66
2022/03/30 06:48:06;;;;;;;3.05;1.00;;;15.20;82.70;;;;;;5010918;28;20046;-66
2022/03/30 06:50:32;;;;;;;3.38;0.90;;;;;;;;;;4995749;28;20095;-65
2022/03/30 06:53:01;;;;;;;2.67;0.95;;;15.30;78.50;;;;;;5005857;28;20465;-65
2022/03/30 06:55:27;;;;;;;5.22;0.98;;;;;;;;;;5000388;28;20049;-66
2022/03/30 06:57:53;;;;;;;3.65;0.98;;;15.10;82.90;;;;;;4995797;28;20497;-66
2022/03/30 07:00:19;;;;;;;2.10;0.70;;;;;;;;;;5001711;28;20432;-65
2022/03/30 07:02:45;;;;;;;2.70;0.82;;;15.20;82.80;;;;;;5008057;28;20049;-65
2022/03/30 07:05:11;;;;;;;1.58;0.95;;;15.20;82.70;;;;;;5004927;28;20064;-65
2022/03/30 07:10:23;;;;;;;2.83;1.00;;;15.10;82.80;;;;;;4997695;28;20050;-65
2022/03/30 07:12:50;;;;;;;2.35;0.88;;;15.40;83.00;;;;;;5005053;28;20061;-66
2022/03/30 07:15:16;;;;;;;2.63;0.95;;;15.50;82.90;;;;;;4999845;28;20480;-66
2022/03/30 07:17:46;;;;;;;1.98;0.80;;;15.50;82.80;;;;;;5002904;28;20464;-65
2022/03/30 07:20:13;;;;;;;3.35;1.15;;;15.20;82.00;;;;;;4994960;28;20090;-66
2022/03/30 07:22:39;;;;;;;3.42;1.00;;;15.50;82.70;;;;;;5009627;28;20093;-65
2022/03/30 07:25:05;;;;;;;4.05;1.17;;;15.60;82.70;;;;;;5014317;28;20453;-66
2022/03/30 07:27:31;;;;;;;2.83;1.15;;;15.60;82.30;;;;;;5013650;28;20103;-65
2022/03/30 07:29:57;;;;;;;2.33;0.90;;;15.70;82.50;;;;;;5013821;28;20050;-65
2022/03/30 07:32:24;;;;;;;3.97;0.85;;;15.60;82.30;;;;;;5013401;28;20040;-62
2022/03/30 07:34:53;;;;;;;2.80;0.95;;;;;;;;;;5011288;28;20396;-60
2022/03/30 07:37:19;;;;;;;3.67;1.00;;;15.70;82.20;;;;;;5007585;28;20125;-65
2022/03/30 07:39:45;;;;;;;4.47;1.10;;;;;;;;;;5011508;28;20457;-65
2022/03/30 07:42:11;;;;;;;3.05;1.17;;;;;;;;;;5009304;28;20048;-65
2022/03/30 07:44:37;;;;;;;3.63;0.95;;;;;;;;;;5012868;28;20046;-65
2022/03/30 07:47:05;;;;;;;3.67;1.15;;;;;;;;;;5010259;28;20049;-65
2022/03/30 07:49:31;;;;;;;3.00;1.10;;;;;;;;;;5003814;28;20041;-65
2022/03/30 07:51:58;;;;;;;4.10;0.98;;;15.80;81.80;;;;;;4999514;28;20141;-65
2022/03/30 07:54:23;;;;;;;3.60;0.90;;;15.80;81.90;;;;;;5013107;28;20439;-65
2022/03/30 07:56:49;;;;;;;2.88;1.10;;;15.60;81.80;;;;;;5011056;28;20038;-63
2022/03/30 07:59:15;;;;;;;4.18;1.40;;;15.90;82.00;;;;;;5013418;28;20042;-65
2022/03/30 08:01:41;;;;;;;4.80;1.50;;;15.60;79.60;;;;;;5014582;28;20037;-62
2022/03/30 08:04:06;;;;;;;5.20;1.30;;;15.90;81.90;;;;;;5022227;28;20396;-61
2022/03/30 08:06:34;;;;;;;4.22;1.48;;;16.00;81.90;;;;;;5010503;28;20130;-65
2022/03/30 08:09:00;;;;;;;4.07;1.17;;;15.90;81.90;;;;;;4996137;28;20449;-65
2022/03/30 08:11:26;;;;;;;3.67;1.20;;;;;;;;;;4993917;28;20042;-65
2022/03/30 08:13:52;;;;;;;5.60;1.60;;;15.90;81.90;;;;;;4994266;28;20053;-65
2022/03/30 08:16:18;;;;;;;4.20;1.67;;;;;;;;;;4994898;28;20046;-60
2022/03/30 08:18:44;;;;;;;5.95;1.30;;;15.90;81.80;;;;;;4994300;28;20050;-62
2022/03/30 08:23:55;;;;;;;4.03;1.20;;;15.50;81.50;;;;;;4994103;28;20105;-61
2022/03/30 08:26:21;;;;;;;3.38;1.20;;;15.80;81.70;;;;;;4994645;28;20058;-60
2022/03/30 08:28:47;;;;;;;3.63;1.05;;;16.00;81.70;;;;;;4992920;28;20043;-64
2022/03/30 08:31:13;;;;;;;3.95;1.50;;;15.80;81.60;;;;;;5001141;28;20377;-65
2022/03/30 08:33:39;;;;;;;4.70;1.27;;;15.60;81.50;;;;;;5013439;28;20046;-66
2022/03/30 08:36:05;;;;;;;4.30;1.20;;;15.60;81.50;;;;;;5013805;28;20503;-65
2022/03/30 08:38:30;;;;;;;5.20;1.13;;;15.50;81.50;;;;;;5013543;28;20108;-65
2022/03/30 08:40:57;;;;;;;2.22;0.93;;;15.60;81.50;;;;;;5013344;28;20042;-65
2022/03/30 08:43:24;;;;;;;3.55;1.08;;;15.70;81.80;;;;;;5005793;28;20054;-61
2022/03/30 08:45:50;;;;;;;3.15;1.10;;;15.80;81.70;;;;;;4992279;28;20046;-61
2022/03/30 08:48:16;;;;;;;2.08;0.90;;;15.60;81.70;;;;;;4994027;28;20050;-60
2022/03/30 08:50:41;;;;;;;4.18;1.13;;;15.70;81.60;;;;;;5016481;28;20038;-61
2022/03/30 08:53:08;;;;;;;4.45;1.20;;;;;;;;;;5048449;28;20124;-61
2022/03/30 08:55:33;;;;;;;4.25;1.10;;;15.70;81.60;;;;;;5033581;28;20045;-60
2022/03/30 08:58:00;;;;;;;5.88;1.23;;;15.50;81.50;;;;;;5033188;28;20388;-65
2022/03/30 09:00:26;;;;;;;4.18;1.45;;;15.60;81.40;;;;;;5016259;28;20068;-65
2022/03/30 09:03:00;;;;;;;2.95;1.00;;;15.50;76.90;;;;;;4988467;28;20043;-65
2022/03/30 09:05:28;;;;;;;2.42;1.02;;;15.80;81.50;;;;;;4993827;28;20057;-65
2022/03/30 09:07:55;;;;;;;3.55;1.10;;;15.40;81.30;;;;;;4992307;28;20042;-66
2022/03/30 09:10:22;;;;;;;3.30;1.10;;;15.60;81.50;;;;;;4976617;28;20046;-62
2022/03/30 09:12:50;;;;;;;3.80;1.10;;;15.50;81.30;;;;;;5002000;28;20045;-60
2022/03/30 09:15:15;;;;;;;3.83;1.10;;;15.60;81.40;;;;;;4996768;28;20046;-65
2022/03/30 09:17:41;;;;;;;5.50;1.60;;;15.80;81.50;;;;;;4994204;28;20129;-65
2022/03/30 09:20:19;;;;;;;3.95;0.85;;;15.60;81.40;;;;;;4993493;28;20455;-65
2022/03/30 09:22:47;;;;;;;4.68;1.20;;;15.70;81.30;;;;;;4993254;28;20116;-65
2022/03/30 09:25:13;;;;;;;5.20;1.38;;;15.70;81.30;;;;;;4993780;28;20129;-65
2022/03/30 09:27:41;;;;;;;4.45;1.05;;;15.70;80.90;;;;;;4992507;28;20130;-62
2022/03/30 09:30:09;;;;;;;3.33;1.35;;;15.70;81.20;;;;;;4977404;28;20043;-63
2022/03/30 09:32:35;;;;;;;3.30;1.00;;;;;;;;;;4992193;28;20080;-62
2022/03/30 09:35:01;;;;;;;3.67;1.20;;;15.90;81.10;;;;;;4993979;28;20129;-62
2022/03/30 09:37:26;;;;;;;4.97;1.25;;;15.80;81.00;;;;;;4993684;28;20468;-61
2022/03/30 09:39:52;;;;;;;3.45;1.25;;;15.80;80.80;;;;;;4994526;28;20511;-62
2022/03/30 09:42:18;;;;;;;4.93;1.33;;;15.80;80.80;;;;;;4996877;28;20053;-63
2022/03/30 09:44:48;;;;;;;3.45;1.02;;;15.70;80.60;;;;;;4997165;28;20081;-60
2022/03/30 09:47:14;;;;;;;3.75;1.20;;;16.00;80.80;;;;;;4996804;28;20108;-61
2022/03/30 09:49:48;;;;;;;3.58;1.00;;;15.70;76.20;;;;;;4996931;28;20129;-62
2022/03/30 09:52:23;;;;;;;2.20;0.90;;;15.80;80.50;;;;;;4997435;28;20061;-61
2022/03/30 09:54:50;;;;;;;2.83;0.88;;;15.70;80.30;;;;;;4996902;28;20058;-61
2022/03/30 09:57:21;;;;;;;3.05;0.93;;;15.90;80.30;;;;;;4996647;28;20117;-65
2022/03/30 10:00:12;;;;;;;2.78;1.00;;;15.80;76.10;;;;;;5002557;28;20103;-63
2022/03/30 10:02:49;;;;;;;3.78;0.98;;;16.10;80.30;;;;;;5017735;28;20053;-66
2022/03/30 10:05:16;;;;;;;4.03;1.27;;;15.90;80.20;;;;;;5036165;28;20042;-62
2022/03/30 10:07:42;;;;;;;4.30;1.27;;;16.10;80.20;;;;;;5030138;28;20058;-61
2022/03/30 10:10:10;;;;;;;5.53;1.13;;;15.90;80.10;;;;;;4996298;28;20057;-62
2022/03/30 10:12:36;;;;;;;5.13;1.35;;;16.00;79.80;;;;;;5002235;28;20088;-65
2022/03/30 10:15:02;;;;;;;3.78;1.00;;;;;;;;;;5029913;28;20054;-62
2022/03/30 10:17:29;;;;;;;7.22;1.33;;;;;;;;;;5015559;28;20057;-63
2022/03/30 10:19:57;;;;;;;4.70;1.20;;;16.00;79.70;;;;;;5003034;28;20046;-63
2022/03/30 10:22:48;;;;;;;4.57;1.20;;;16.00;79.80;;;;;;5002741;28;20423;-64
2022/03/30 10:25:32;;;;;;;2.63;0.80;;;15.90;75.20;;;;;;5013300;28;20054;-65
2022/03/30 10:28:20;;;;;;;2.92;0.90;;;16.10;75.60;;;;;;5015395;28;20618;-65
2022/03/30 10:30:46;;;;;;;3.58;1.00;;;;;;;;;;5030775;28;20089;-65
2022/03/30 10:33:12;;;;;;;4.18;1.08;;;16.20;79.60;;;;;;5015404;28;20049;-66
2022/03/30 10:35:47;;;;;;;3.60;1.10;;;16.10;79.50;;;;;;4992943;28;20042;-64
2022/03/30 10:38:14;;;;;;;6.07;1.17;;;16.10;79.60;;;;;;5014939;28;20120;-65
2022/03/30 10:40:40;;;;;;;2.70;1.00;;;16.00;79.40;;;;;;5015400;28;20103;-65
2022/03/30 10:43:07;;;;;;;4.68;0.88;;;15.90;79.30;;;;;;5014571;28;20125;-65
2022/03/30 10:45:46;;;;;;;2.28;0.73;;;16.20;76.70;;;;;;5015659;28;20144;-65
2022/03/30 10:48:18;;;;;;;2.67;0.82;;;16.30;79.50;;;;;;5014403;28;20045;-66
2022/03/30 10:51:20;;;;;;;4.55;1.30;;;16.20;76.60;;;;;;5014491;28;20085;-65
2022/03/30 10:53:47;;;;;;;1.88;0.60;;;16.20;79.20;;;;;;4954737;29;20051;-61
2022/03/30 10:56:13;;;;;;;3.95;1.10;;;;;;;;;;4954921;29;20051;-61
2022/03/30 10:58:59;;;;;;;3.47;1.13;;;16.40;75.00;;;;;;4954563;29;20417;-62
2022/03/30 11:01:32;;;;;;;2.97;1.13;;;16.50;79.20;;;;;;4954742;29;20129;-63
2022/03/30 11:04:18;;;;;;;4.05;1.25;;;16.40;74.90;;;;;;4939186;29;20053;-61
2022/03/30 11:06:45;;;;;;;6.38;0.98;;;16.40;76.30;;;;;;4957989;28;20047;-63
2022/03/30 11:09:17;;;;;;;2.13;0.90;;;;;;;;;;4969393;28;20142;-61
2022/03/30 11:11:44;;;;;;;4.72;1.50;;;16.50;79.00;;;;;;4971129;28;20047;-64
2022/03/30 11:14:49;;;;;;;3.92;1.50;;;16.50;74.70;;;;;;4954252;29;20110;-61
2022/03/30 11:17:30;;;;;;;3.85;1.30;;;16.60;79.00;;;;;;4941243;29;20055;-61
2022/03/30 11:19:57;;;;;;;3.30;1.05;;;16.40;78.80;;;;;;4938348;29;20075;-61
2022/03/30 11:22:23;;;;;;;5.38;1.40;;;;;;;;;;4953990;29;20094;-61
2022/03/30 11:25:10;;;;;;;3.58;1.33;;;16.90;78.90;;;;;;4954212;29;20083;-61
2022/03/30 11:27:36;;;;;;;4.22;0.93;;;16.90;78.60;;;;;;4961695;28;20511;-61
2022/03/30 11:30:04;;;;;;;8.40;1.20;;;16.80;78.40;;;;;;4995207;28;20042;-62
2022/03/30 11:32:37;;;;;;;6.45;1.50;;;16.90;78.20;;;;;;4995569;28;20385;-62
2022/03/30 11:35:10;;;;;;;3.55;1.00;;;17.10;78.30;;;;;;5009421;28;20039;-62
2022/03/30 11:37:38;;;;;;;6.22;1.27;;;17.00;78.20;;;;;;4995042;28;20074;-62
2022/03/30 11:40:07;;;;;;;5.18;1.27;;;17.00;78.10;;;;;;5012520;28;20097;-63
2022/03/30 11:42:33;;;;;;;6.22;1.40;;;17.20;78.10;;;;;;5029421;28;20480;-61
2022/03/30 11:47:46;;;;;;;5.78;1.27;;;16.80;76.50;;;;;;5014470;28;20046;-61
2022/03/30 11:50:12;;;;;;;3.38;1.27;;;17.00;77.80;;;;;;5008198;28;20480;-62
2022/03/30 11:52:39;;;;;;;3.47;0.95;;;;;;;;;;4996812;28;20131;-65
2022/03/30 11:55:06;;;;;;;4.20;1.17;;;17.20;77.70;;;;;;5014270;28;20143;-63
2022/03/30 11:57:37;;;;;;;3.50;0.80;;;17.10;77.50;;;;;;5013979;28;20045;-65
2022/03/30 12:00:05;;;;;;;4.50;0.85;;;17.10;77.50;;;;;;5029419;28;20046;-63
2022/03/30 12:02:30;;;;;;;4.78;1.67;;;17.10;77.50;;;;;;5014012;28;20177;-63
2022/03/30 12:04:57;;;;;;;7.18;1.95;;;17.00;77.40;;;;;;5014049;28;20459;-67
2022/03/30 12:07:23;;;;;;;6.70;1.17;;;17.20;77.40;;;;;;5006156;28;20052;-63
2022/03/30 12:09:50;;;;;;;3.50;1.10;;;16.80;74.30;;;;;;4994335;28;20046;-61
2022/03/30 12:12:35;;;;;;;4.70;1.17;;;17.00;72.70;;;;;;5001146;28;20136;-62
2022/03/30 12:15:12;;;;;;;5.32;1.27;;;17.00;74.10;;;;;;5025738;28;20054;-69
2022/03/30 12:17:39;;;;;;;4.00;1.13;;;17.10;77.40;;;;;;5014053;28;20074;-64
2022/03/30 12:20:06;;;;;;;6.10;1.38;;;16.90;73.90;;;;;;5013549;28;20089;-61
2022/03/30 12:22:33;;;;;;;2.80;1.08;;;16.70;76.90;;;;;;5013319;28;20058;-65
2022/03/30 12:24:59;;;;;;;4.13;1.00;;;16.90;77.00;;;;;;5000934;28;20046;-64
2022/03/30 12:27:25;;;;;;;4.05;1.33;;;17.00;76.50;;;;;;4992937;28;20042;-61
2022/03/30 12:29:55;;;;;;;4.47;1.08;;;16.80;77.10;;;;;;4993833;28;20046;-61
2022/03/30 12:32:24;;;;;;;3.55;1.10;;;16.90;77.00;;;;;;4992694;28;20054;-61
2022/03/30 12:35:04;;;;;;;5.25;1.48;;;17.00;77.00;;;;;;4994128;28;20046;-61
2022/03/30 12:37:30;;;;;;;5.72;1.15;;;16.90;77.00;;;;;;4994029;28;20042;-60
2022/03/30 12:39:57;;;;;;;2.80;1.17;;;17.00;77.20;;;;;;4993707;28;20051;-60
2022/03/30 12:42:27;;;;;;;4.35;1.40;;;16.90;74.10;;;;;;4978296;28;20049;-61
2022/03/30 12:44:58;;;;;;;3.33;1.00;;;16.90;77.00;;;;;;5013728;28;20045;-61
2022/03/30 12:47:32;;;;;;;4.25;1.20;;;16.50;76.80;;;;;;5013407;28;20045;-61
2022/03/30 12:49:59;;;;;;;8.30;1.30;;;16.90;76.40;;;;;;5013625;28;20046;-61
2022/03/30 12:52:32;;;;;;;4.95;1.20;;;17.00;72.00;;;;;;5013565;28;20085;-61
2022/03/30 12:55:32;;;;;;;4.13;1.45;;;16.90;72.40;;;;;;5013337;28;20132;-62
2022/03/30 12:57:59;;;;;;;3.45;1.00;;;16.70;76.30;;;;;;4952823;29;20073;-61
2022/03/30 13:00:28;;;;;;;4.78;1.10;;;16.60;76.00;;;;;;4951972;28;20612;-61
2022/03/30 13:03:07;;;;;;;6.80;1.33;;;16.70;71.80;;;;;;4952759;29;20049;-61
2022/03/30 13:05:32;;;;;;;5.70;1.27;;;16.70;76.10;;;;;;4946263;28;20087;-62
2022/03/30 13:07:58;;;;;;;2.97;1.05;;;16.30;76.00;;;;;;4953048;29;20093;-62
2022/03/30 13:10:25;;;;;;;4.85;1.25;;;;;;;;;;4952505;29;20147;-61
2022/03/30 13:12:55;;;;;;;5.03;1.50;;;16.50;76.30;;;;;;4952374;29;20113;-60